Station Historical Data
Daily Summary for March 1, 2017 Units:  Metric    English   Both
« Previous Day
Next Day »
Daily Weekly Monthly Yearly Custom
  High: Low: Average:
Temperature: 15.7 °C 2.3 °C 11.4 °C
Dew Point: 12.1 °C -1.8 °C 7.9 °C
Humidity: 93% 69% 80%
Wind Speed: 35.4km/h 1.6km/h 14.8km/h
Wind Gust: 61.2km/h - -
Wind- - SW
Pressure: 1006.3 hPa 991.8 hPa -
Precipitation: 0 mm    
Historical Graphs
 
 
Tabular Data for March 1, 2017
Time Temperature Dew Point Pressure Wind Wind Speed Wind Gust Humidity Rainfall Rate (Hourly)
00:04 14.3 °C 10.1 °C 1006.3 hPa SW 8 km/h 17.7 km/h 76% 0 mm
00:09 14.2 °C 10.1 °C 1006 hPa SSW 16.1 km/h 24.1 km/h 76% 0 mm
00:14 14.2 °C 10.1 °C 1005.6 hPa South 14.5 km/h 24.1 km/h 76% 0 mm
00:19 14.3 °C 10.1 °C 1005.3 hPa West 12.9 km/h 24.1 km/h 76% 0 mm
00:24 14.2 °C 10.1 °C 1005.3 hPa South 6.4 km/h 25.7 km/h 76% 0 mm
00:29 14.1 °C 9.9 °C 1005.3 hPa SW 9.7 km/h 16.1 km/h 76% 0 mm
00:34 14.1 °C 10.1 °C 1005 hPa South 8 km/h 20.9 km/h 77% 0 mm
00:39 14.2 °C 10.2 °C 1005.3 hPa SSW 11.3 km/h 27.4 km/h 77% 0 mm
00:44 14.2 °C 10.2 °C 1005.3 hPa SSW 11.3 km/h 30.6 km/h 77% 0 mm
00:49 14.3 °C 10.3 °C 1005.3 hPa SSW 12.9 km/h 35.4 km/h 77% 0 mm
00:54 14.3 °C 10.3 °C 1005 hPa SSW 12.9 km/h 35.4 km/h 77% 0 mm
00:59 14.3 °C 10.3 °C 1004.6 hPa SSW 11.3 km/h 22.5 km/h 77% 0 mm
01:04 14.3 °C 10.3 °C 1004.6 hPa SSW 11.3 km/h 20.9 km/h 77% 0 mm
01:09 14.4 °C 10.4 °C 1004.6 hPa SSW 11.3 km/h 27.4 km/h 77% 0 mm
01:14 14.3 °C 10.5 °C 1004.3 hPa SSW 11.3 km/h 27.4 km/h 78% 0 mm
01:19 14.2 °C 10.6 °C 1004.3 hPa South 8 km/h 16.1 km/h 79% 0 mm
01:24 14.2 °C 10.6 °C 1003.9 hPa SW 16.1 km/h 25.7 km/h 79% 0 mm
01:29 14.1 °C 10.5 °C 1003.9 hPa SSW 11.3 km/h 25.7 km/h 79% 0 mm
01:34 14.2 °C 10.6 °C 1003.9 hPa SSW 14.5 km/h 24.1 km/h 79% 0 mm
01:39 14.2 °C 10.6 °C 1003.6 hPa SSW 8 km/h 19.3 km/h 79% 0 mm
01:44 14.2 °C 10.6 °C 1003.6 hPa SSW 3.2 km/h 19.3 km/h 79% 0 mm
01:49 14.3 °C 10.7 °C 1003.3 hPa South 9.7 km/h 19.3 km/h 79% 0 mm
01:54 14.3 °C 10.7 °C 1002.9 hPa South 11.3 km/h 24.1 km/h 79% 0 mm
01:59 14.2 °C 10.6 °C 1002.9 hPa South 11.3 km/h 24.1 km/h 79% 0 mm
02:04 14.1 °C 10.7 °C 1002.6 hPa South 8 km/h 16.1 km/h 80% 0 mm
02:09 14 °C 10.8 °C 1002.3 hPa South 8 km/h 19.3 km/h 81% 0 mm
02:14 14.1 °C 10.8 °C 1002.3 hPa South 17.7 km/h 20.9 km/h 81% 0 mm
02:19 14.2 °C 11 °C 1002.3 hPa South 8 km/h 25.7 km/h 81% 0 mm
02:24 14.2 °C 11.2 °C 1001.9 hPa South 20.9 km/h 20.9 km/h 82% 0.76 mm
02:29 14.3 °C 11.4 °C 1001.9 hPa South 12.9 km/h 32.2 km/h 83% 1.52 mm
02:34 14.1 °C 11.4 °C 1001.6 hPa South 19.3 km/h 20.9 km/h 84% 2.03 mm
02:39 14.1 °C 11.4 °C 1001.6 hPa SW 9.7 km/h 22.5 km/h 84% 2.03 mm
02:44 14.1 °C 11.4 °C 1001.2 hPa SW 19.3 km/h 24.1 km/h 84% 2.03 mm
02:49 14.1 °C 11.4 °C 1001.2 hPa SW 6.4 km/h 22.5 km/h 84% 2.03 mm
02:54 14.1 °C 11.4 °C 1001.2 hPa SSW 9.7 km/h 22.5 km/h 84% 2.03 mm
02:59 14.1 °C 11.4 °C 1000.9 hPa SSW 9.7 km/h 20.9 km/h 84% 2.03 mm
03:04 14.2 °C 11.6 °C 1000.9 hPa SSW 11.3 km/h 24.1 km/h 84% 2.03 mm
03:09 14.3 °C 11.4 °C 1000.9 hPa SSW 11.3 km/h 24.1 km/h 83% 2.29 mm
03:14 14.2 °C 11.6 °C 1000.9 hPa South 9.7 km/h 27.4 km/h 84% 3.3 mm
03:19 14.1 °C 11.6 °C 1000.6 hPa SW 6.4 km/h 22.5 km/h 85% 3.56 mm
03:24 14 °C 11.7 °C 1000.6 hPa SSW 9.7 km/h 22.5 km/h 86% 3.05 mm
03:29 13.9 °C 11.7 °C 1000.2 hPa SSW 9.7 km/h 24.1 km/h 86% 2.79 mm
03:34 14 °C 11.7 °C 999.9 hPa SSW 16.1 km/h 24.1 km/h 86% 2.29 mm
03:39 13.9 °C 11.8 °C 999.9 hPa SSW 9.7 km/h 22.5 km/h 87% 2.54 mm
03:44 13.9 °C 11.8 °C 999.5 hPa South 11.3 km/h 19.3 km/h 87% 2.54 mm
03:49 13.9 °C 11.8 °C 999.5 hPa South 4.8 km/h 25.7 km/h 87% 2.79 mm
03:54 13.9 °C 11.8 °C 999.2 hPa SW 8 km/h 22.5 km/h 87% 2.79 mm
03:59 14 °C 11.9 °C 999.2 hPa South 9.7 km/h 22.5 km/h 87% 2.79 mm
04:04 14.1 °C 11.9 °C 998.9 hPa SSW 11.3 km/h 22.5 km/h 87% 2.79 mm
04:09 14.2 °C 11.8 °C 998.5 hPa South 11.3 km/h 24.1 km/h 86% 2.54 mm
04:14 14.3 °C 11.9 °C 998.5 hPa SSW 11.3 km/h 22.5 km/h 86% 1.52 mm
04:19 14.3 °C 12 °C 998.5 hPa South 11.3 km/h 24.1 km/h 86% 1.27 mm
04:24 14.4 °C 11.9 °C 998.5 hPa SSW 11.3 km/h 24.1 km/h 85% 1.02 mm
04:29 14.6 °C 12.1 °C 998.2 hPa SSE 11.3 km/h 20.9 km/h 85% 0.51 mm
04:34 14.7 °C 12 °C 997.9 hPa SSW 9.7 km/h 24.1 km/h 84% 0.51 mm
04:39 14.8 °C 11.9 °C 997.9 hPa SSW 9.7 km/h 29 km/h 83% 0.25 mm
04:44 15.1 °C 12.1 °C 997.9 hPa SW 8 km/h 25.7 km/h 82% 0.25 mm
04:49 15.3 °C 11.8 °C 997.9 hPa SW 9.7 km/h 20.9 km/h 80% 0 mm
04:54 15.5 °C 11.9 °C 997.9 hPa SW 8 km/h 19.3 km/h 79% 0 mm
04:59 15.5 °C 11.9 °C 997.9 hPa South 11.3 km/h 20.9 km/h 79% 0 mm
05:04 15.6 °C 11.9 °C 997.5 hPa SW 4.8 km/h 19.3 km/h 79% 0 mm
05:09 15.7 °C 12.1 °C 997.5 hPa SSW 9.7 km/h 22.5 km/h 79% 0 mm
05:14 15.6 °C 11.9 °C 997.5 hPa SSW 9.7 km/h 22.5 km/h 79% 0 mm
05:19 15.6 °C 11.9 °C 997.9 hPa SSW 8 km/h 20.9 km/h 79% 0 mm
05:24 15.6 °C 12 °C 997.5 hPa SSW 9.7 km/h 22.5 km/h 79% 0 mm
05:29 15.6 °C 11.9 °C 997.5 hPa SSW 9.7 km/h 22.5 km/h 79% 0 mm
05:34 15.6 °C 11.9 °C 997.5 hPa SSW 9.7 km/h 22.5 km/h 79% 0 mm
05:39 15.5 °C 11.9 °C 997.5 hPa SW 4.8 km/h 20.9 km/h 79% 0 mm
05:44 15.4 °C 11.8 °C 997.5 hPa SW 4.8 km/h 16.1 km/h 79% 0 mm
05:49 15.3 °C 11.7 °C 997.5 hPa SW 6.4 km/h 11.3 km/h 79% 0 mm
05:54 15.3 °C 11.9 °C 997.5 hPa WSW 9.7 km/h 14.5 km/h 80% 0 mm
05:59 15.3 °C 11.9 °C 997.5 hPa SW 8 km/h 14.5 km/h 80% 0 mm
06:04 15.3 °C 11.8 °C 997.2 hPa SSW 3.2 km/h 14.5 km/h 80% 0 mm
06:09 15.3 °C 11.8 °C 997.2 hPa West 8 km/h 17.7 km/h 80% 0 mm
06:14 14.9 °C 11.3 °C 997.2 hPa WSW 6.4 km/h 17.7 km/h 79% 0 mm
06:19 14.2 °C 10.6 °C 997.2 hPa West 4.8 km/h 11.3 km/h 79% 0 mm
06:24 13.7 °C 10.3 °C 997.2 hPa West 4.8 km/h 11.3 km/h 80% 0 mm
06:29 13 °C 9.6 °C 997.2 hPa West 6.4 km/h 11.3 km/h 80% 0 mm
06:34 12.6 °C 9.4 °C 997.2 hPa West 6.4 km/h 11.3 km/h 81% 0 mm
06:44 12.2 °C 9.4 °C 997.2 hPa WSW 6.4 km/h 9.7 km/h 83% 0 mm
06:49 12.2 °C 9.4 °C 997.2 hPa WSW 4.8 km/h 9.7 km/h 83% 0 mm
06:54 12.1 °C 9.4 °C 997.2 hPa WSW 3.2 km/h 6.4 km/h 84% 0 mm
06:59 12.1 °C 9.4 °C 997.2 hPa West 1.6 km/h 6.4 km/h 84% 0 mm
07:04 12 °C 9.4 °C 997.2 hPa WSW 4.8 km/h 6.4 km/h 84% 0 mm
07:09 11.9 °C 9.3 °C 996.8 hPa WSW 1.6 km/h 6.4 km/h 84% 0 mm
07:14 11.9 °C 9.4 °C 996.8 hPa WSW 6.4 km/h 6.4 km/h 85% 0 mm
07:19 11.8 °C 9.3 °C 996.8 hPa WSW 3.2 km/h 9.7 km/h 85% 0 mm
07:24 11.8 °C 9.3 °C 996.5 hPa SW 4.8 km/h 12.9 km/h 85% 0.25 mm
07:29 11.8 °C 9.5 °C 996.5 hPa SW 6.4 km/h 12.9 km/h 86% 0.25 mm
07:34 11.7 °C 9.4 °C 997.2 hPa SW 4.8 km/h 12.9 km/h 86% 0.51 mm
07:39 11.4 °C 9.2 °C 997.9 hPa WSW 11.3 km/h 30.6 km/h 86% 1.27 mm
07:44 11 °C 8.9 °C 997.9 hPa WSW 8 km/h 22.5 km/h 87% 2.29 mm
07:49 10.8 °C 8.9 °C 997.9 hPa WSW 6.4 km/h 12.9 km/h 88% 3.05 mm
07:54 10.8 °C 9.1 °C 997.9 hPa WSW 8 km/h 14.5 km/h 89% 3.3 mm
07:59 10.6 °C 8.9 °C 997.5 hPa SW 3.2 km/h 8 km/h 89% 3.56 mm
08:04 10.4 °C 8.7 °C 997.5 hPa South 11.3 km/h 16.1 km/h 89% 3.56 mm
08:09 9.7 °C 7.9 °C 997.2 hPa SSE 8 km/h 14.5 km/h 89% 3.81 mm
08:14 8.9 °C 7.2 °C 996.5 hPa South 8 km/h 14.5 km/h 89% 3.81 mm
08:19 8.4 °C 6.9 °C 996.5 hPa SSW 8 km/h 20.9 km/h 90% 3.81 mm
08:24 8.3 °C 6.9 °C 995.8 hPa SSW 8 km/h 14.5 km/h 91% 3.56 mm
08:29 8.7 °C 7.4 °C 996.2 hPa South 8 km/h 14.5 km/h 92% 3.56 mm
08:34 8.8 °C 7.6 °C 996.2 hPa SSW 8 km/h 14.5 km/h 92% 3.3 mm
08:39 9.1 °C 7.8 °C 995.8 hPa SSW 9.7 km/h 19.3 km/h 92% 2.54 mm
08:44 9.5 °C 8.4 °C 995.5 hPa SSW 8 km/h 19.3 km/h 93% 1.52 mm
08:49 9.9 °C 8.9 °C 995.1 hPa SSW 8 km/h 14.5 km/h 93% 0.76 mm
08:54 10.3 °C 9.2 °C 994.8 hPa SSW 6.4 km/h 17.7 km/h 93% 0.51 mm
08:59 10.9 °C 9.8 °C 994.1 hPa SSW 8 km/h 17.7 km/h 93% 0.25 mm
09:04 11.2 °C 10.1 °C 993.8 hPa South 11.3 km/h 16.1 km/h 93% 0.25 mm
09:09 11.4 °C 10.3 °C 993.1 hPa South 9.7 km/h 19.3 km/h 93% 0 mm
09:14 11.6 °C 10.3 °C 993.5 hPa SSE 9.7 km/h 20.9 km/h 92% 0 mm
09:19 11.7 °C 10.4 °C 993.1 hPa SSW 9.7 km/h 14.5 km/h 92% 0 mm
09:24 11.9 °C 10.4 °C 993.5 hPa SSE 8 km/h 22.5 km/h 91% 0 mm
09:29 12.6 °C 10.9 °C 994.1 hPa WSW 8 km/h 14.5 km/h 90% 0 mm
09:34 12.9 °C 10.8 °C 994.1 hPa SW 8 km/h 14.5 km/h 87% 0 mm
09:39 13.3 °C 11.1 °C 994.1 hPa SW 8 km/h 17.7 km/h 86% 0 mm
09:44 13.7 °C 11.1 °C 994.1 hPa SW 9.7 km/h 17.7 km/h 84% 0 mm
09:49 14.2 °C 11.2 °C 994.1 hPa SW 9.7 km/h 22.5 km/h 82% 0 mm
09:54 14.4 °C 11.2 °C 994.1 hPa SW 9.7 km/h 22.5 km/h 81% 0 mm
09:59 14.8 °C 11.4 °C 994.5 hPa SW 16.1 km/h 20.9 km/h 80% 0 mm
10:04 14.8 °C 11.2 °C 994.1 hPa SSW 9.7 km/h 27.4 km/h 79% 0 mm
10:09 14.7 °C 11.1 °C 994.1 hPa SW 11.3 km/h 27.4 km/h 79% 0 mm
10:14 14.6 °C 10.8 °C 994.1 hPa SW 11.3 km/h 25.7 km/h 78% 0 mm
10:19 14.3 °C 10.6 °C 994.1 hPa SW 12.9 km/h 20.9 km/h 78% 0 mm
10:24 14.4 °C 10.8 °C 994.1 hPa SW 11.3 km/h 24.1 km/h 79% 0 mm
10:29 14.3 °C 10.7 °C 993.8 hPa SW 11.3 km/h 24.1 km/h 79% 0 mm
10:34 14.5 °C 10.7 °C 993.8 hPa SW 11.3 km/h 24.1 km/h 78% 0 mm
10:39 14.7 °C 10.7 °C 993.8 hPa SW 11.3 km/h 24.1 km/h 77% 0 mm
10:44 14.8 °C 10.8 °C 993.8 hPa South 8 km/h 20.9 km/h 77% 0 mm
10:49 15 °C 11 °C 993.8 hPa West 8 km/h 20.9 km/h 77% 0 mm
10:54 15 °C 11 °C 993.8 hPa West 11.3 km/h 19.3 km/h 77% 0 mm
10:59 14.7 °C 10.7 °C 993.8 hPa SW 9.7 km/h 22.5 km/h 77% 0 mm
11:04 14.4 °C 10.4 °C 993.8 hPa WSW 19.3 km/h 20.9 km/h 77% 0 mm
11:09 14.2 °C 10.4 °C 993.8 hPa SW 20.9 km/h 27.4 km/h 78% 0 mm
11:14 14.1 °C 9.9 °C 993.8 hPa WSW 12.9 km/h 27.4 km/h 76% 0 mm
11:19 14.1 °C 9.7 °C 994.1 hPa SW 12.9 km/h 24.1 km/h 75% 0 mm
11:24 14.2 °C 9.6 °C 994.1 hPa WSW 12.9 km/h 30.6 km/h 74% 0 mm
11:29 13.9 °C 9.4 °C 994.1 hPa WSW 12.9 km/h 30.6 km/h 74% 0 mm
11:34 13.8 °C 9.3 °C 994.1 hPa WSW 11.3 km/h 22.5 km/h 74% 0 mm
11:39 13.3 °C 8.8 °C 994.1 hPa WSW 8 km/h 27.4 km/h 74% 0 mm
11:44 12.9 °C 8.6 °C 994.1 hPa WSW 12.9 km/h 27.4 km/h 75% 0 mm
11:49 12.9 °C 8.6 °C 994.1 hPa SW 9.7 km/h 20.9 km/h 75% 0 mm
11:54 12.8 °C 8.5 °C 994.5 hPa West 16.1 km/h 19.3 km/h 75% 0 mm
11:59 12.4 °C 8.1 °C 994.5 hPa SSW 12.9 km/h 27.4 km/h 75% 0 mm
12:04 12.1 °C 7.9 °C 994.1 hPa South 8 km/h 17.7 km/h 76% 0 mm
12:09 12 °C 8.1 °C 993.8 hPa WSW 6.4 km/h 19.3 km/h 77% 0 mm
12:14 11.9 °C 8.1 °C 993.8 hPa SW 11.3 km/h 20.9 km/h 77% 0 mm
12:19 12.1 °C 8.2 °C 993.5 hPa SW 9.7 km/h 20.9 km/h 77% 0 mm
12:24 12.3 °C 8.2 °C 993.5 hPa SW 9.7 km/h 20.9 km/h 76% 0 mm
12:29 12.7 °C 8.3 °C 993.5 hPa SW 11.3 km/h 22.5 km/h 75% 0 mm
12:34 13.1 °C 8.7 °C 993.5 hPa SW 11.3 km/h 24.1 km/h 75% 0 mm
12:39 13.8 °C 9.1 °C 993.1 hPa SW 12.9 km/h 33.8 km/h 73% 0 mm
12:44 14.4 °C 9.4 °C 992.8 hPa SW 12.9 km/h 33.8 km/h 72% 0 mm
12:49 14.8 °C 9.4 °C 992.4 hPa SSW 11.3 km/h 30.6 km/h 70% 0 mm
12:54 15.1 °C 9.7 °C 992.1 hPa WSW 14.5 km/h 27.4 km/h 70% 0 mm
12:59 15.3 °C 9.6 °C 992.8 hPa SW 14.5 km/h 25.7 km/h 69% 0 mm
13:04 15.3 °C 9.7 °C 993.1 hPa SW 16.1 km/h 25.7 km/h 69% 0 mm
13:09 15.2 °C 9.6 °C 993.1 hPa SW 9.7 km/h 29 km/h 69% 0 mm
13:14 15 °C 9.3 °C 993.1 hPa SW 16.1 km/h 32.2 km/h 69% 0 mm
13:19 15 °C 9.3 °C 993.1 hPa West 24.1 km/h 29 km/h 69% 0 mm
13:24 15 °C 9.3 °C 993.1 hPa SW 14.5 km/h 29 km/h 69% 0 mm
13:29 14.9 °C 9.4 °C 993.1 hPa SW 12.9 km/h 27.4 km/h 70% 0 mm
13:34 14.7 °C 9.3 °C 993.1 hPa SW 14.5 km/h 27.4 km/h 70% 0 mm
13:39 14.6 °C 9.3 °C 993.1 hPa SW 11.3 km/h 29 km/h 71% 0 mm
13:44 14.3 °C 9.3 °C 993.1 hPa WSW 8 km/h 24.1 km/h 72% 0 mm
13:49 14.2 °C 9.4 °C 992.8 hPa West 11.3 km/h 17.7 km/h 73% 0 mm
13:54 14.3 °C 9.5 °C 992.8 hPa WSW 11.3 km/h 20.9 km/h 73% 0 mm
13:59 14.2 °C 9.4 °C 992.8 hPa SW 12.9 km/h 33.8 km/h 73% 0 mm
14:04 14 °C 9.4 °C 992.8 hPa SW 14.5 km/h 33.8 km/h 74% 0 mm
14:09 14.5 °C 9.9 °C 992.8 hPa WSW 14.5 km/h 30.6 km/h 74% 0 mm
14:14 14.7 °C 9.9 °C 992.8 hPa SSW 12.9 km/h 25.7 km/h 73% 0 mm
14:19 14.5 °C 9.7 °C 992.8 hPa WSW 11.3 km/h 35.4 km/h 73% 0 mm
14:24 14.4 °C 9.7 °C 992.8 hPa SSW 33.8 km/h 33.8 km/h 73% 0 mm
14:29 14.5 °C 9.7 °C 992.8 hPa WSW 17.7 km/h 33.8 km/h 73% 0 mm
14:34 14.1 °C 9.5 °C 992.8 hPa WSW 17.7 km/h 33.8 km/h 74% 0 mm
14:39 13.6 °C 9.3 °C 992.4 hPa SSW 14.5 km/h 30.6 km/h 75% 0 mm
14:44 13.2 °C 8.8 °C 992.4 hPa SW 12.9 km/h 33.8 km/h 75% 0 mm
14:49 12.9 °C 8.8 °C 992.4 hPa SW 9.7 km/h 25.7 km/h 76% 0 mm
14:54 12.6 °C 8.5 °C 992.4 hPa WSW 22.5 km/h 29 km/h 76% 0 mm
14:59 12.6 °C 8.4 °C 992.4 hPa SW 17.7 km/h 29 km/h 76% 0 mm
15:04 12.6 °C 8.5 °C 992.4 hPa WSW 16.1 km/h 32.2 km/h 76% 0 mm
15:09 12.7 °C 8.6 °C 992.4 hPa SW 16.1 km/h 32.2 km/h 76% 0 mm
15:14 13.1 °C 8.5 °C 992.4 hPa SW 17.7 km/h 43.5 km/h 74% 0 mm
15:19 13.4 °C 8.4 °C 992.4 hPa WSW 20.9 km/h 46.7 km/h 72% 0 mm
15:24 13.4 °C 8.3 °C 992.4 hPa WSW 19.3 km/h 40.2 km/h 71% 0 mm
15:29 13.4 °C 8.3 °C 992.4 hPa WSW 25.7 km/h 43.5 km/h 71% 0 mm
15:34 13.5 °C 8.3 °C 992.4 hPa SW 29 km/h 46.7 km/h 71% 0 mm
15:39 13.5 °C 8.6 °C 992.4 hPa West 24.1 km/h 38.6 km/h 72% 0 mm
15:44 13.6 °C 8.6 °C 992.1 hPa West 24.1 km/h 38.6 km/h 72% 0 mm
15:49 13.6 °C 8.4 °C 991.8 hPa West 17.7 km/h 43.5 km/h 71% 0 mm
15:54 13.7 °C 8.6 °C 991.8 hPa WSW 17.7 km/h 37 km/h 71% 0 mm
15:59 13.8 °C 8.7 °C 991.8 hPa West 9.7 km/h 38.6 km/h 71% 0 mm
16:04 13.7 °C 8.6 °C 991.8 hPa WSW 19.3 km/h 38.6 km/h 71% 0 mm
16:09 13.3 °C 8.4 °C 991.8 hPa WSW 19.3 km/h 37 km/h 72% 0 mm
16:14 13.2 °C 8.4 °C 992.1 hPa WSW 19.3 km/h 35.4 km/h 73% 0 mm
16:19 12.9 °C 8.4 °C 992.1 hPa WSW 19.3 km/h 37 km/h 74% 0 mm
16:24 12.8 °C 8.5 °C 992.1 hPa WSW 19.3 km/h 41.8 km/h 75% 0 mm
16:29 12.7 °C 8.4 °C 992.1 hPa WSW 19.3 km/h 41.8 km/h 75% 0 mm
16:34 12.7 °C 8.4 °C 991.8 hPa West 16.1 km/h 40.2 km/h 75% 0 mm
16:39 12.7 °C 8.3 °C 991.8 hPa WSW 22.5 km/h 48.3 km/h 75% 0 mm
16:44 12.3 °C 7.9 °C 991.8 hPa WSW 22.5 km/h 48.3 km/h 75% 0 mm
16:49 11.9 °C 7.8 °C 991.8 hPa West 20.9 km/h 38.6 km/h 76% 0 mm
16:54 11.6 °C 8.3 °C 992.1 hPa WSW 25.7 km/h 35.4 km/h 80% 0 mm
16:59 11.5 °C 8.6 °C 991.8 hPa SW 12.9 km/h 32.2 km/h 82% 0.25 mm
17:04 11.4 °C 8.4 °C 992.1 hPa WSW 20.9 km/h 38.6 km/h 82% 0.25 mm
17:09 11.3 °C 8.5 °C 992.1 hPa West 22.5 km/h 40.2 km/h 83% 0.25 mm
17:14 11.2 °C 8.3 °C 992.1 hPa WSW 22.5 km/h 41.8 km/h 82% 0.25 mm
17:19 11.2 °C 8.3 °C 991.8 hPa SW 24.1 km/h 41.8 km/h 82% 0.25 mm
17:24 11.2 °C 8.2 °C 991.8 hPa SW 20.9 km/h 40.2 km/h 82% 0.25 mm
17:29 11.2 °C 8 °C 992.1 hPa WSW 20.9 km/h 48.3 km/h 81% 0.25 mm
17:34 11.2 °C 8 °C 991.8 hPa WSW 22.5 km/h 48.3 km/h 81% 0.25 mm
17:39 11.2 °C 7.8 °C 992.1 hPa WSW 22.5 km/h 43.5 km/h 80% 0.25 mm
17:44 11.2 °C 7.7 °C 992.1 hPa WSW 17.7 km/h 41.8 km/h 79% 0.25 mm
17:49 11.1 °C 7.6 °C 992.1 hPa WSW 24.1 km/h 51.5 km/h 79% 0.25 mm
17:54 10.8 °C 7.3 °C 992.1 hPa West 9.7 km/h 41.8 km/h 79% 0.25 mm
17:59 10.6 °C 7.2 °C 992.1 hPa WSW 12.9 km/h 35.4 km/h 80% 0 mm
18:04 10.6 °C 7.1 °C 992.4 hPa SW 22.5 km/h 43.5 km/h 79% 0 mm
18:09 10.4 °C 6.9 °C 992.4 hPa West 25.7 km/h 57.9 km/h 79% 0 mm
18:14 10.1 °C 6.8 °C 992.4 hPa West 35.4 km/h 54.7 km/h 80% 0 mm
18:19 9.9 °C 6.6 °C 992.4 hPa SW 24.1 km/h 54.7 km/h 80% 0 mm
18:24 9.6 °C 6.3 °C 992.8 hPa SW 27.4 km/h 53.1 km/h 80% 0 mm
18:29 9.3 °C 6.1 °C 992.8 hPa SW 27.4 km/h 56.3 km/h 80% 0 mm
18:34 9.1 °C 5.8 °C 992.8 hPa SW 25.7 km/h 56.3 km/h 80% 0 mm
18:39 8.8 °C 5.5 °C 992.8 hPa SW 25.7 km/h 48.3 km/h 80% 0 mm
18:44 8.6 °C 5.5 °C 993.1 hPa WSW 22.5 km/h 43.5 km/h 81% 0 mm
18:49 8.5 °C 5.4 °C 993.1 hPa WSW 22.5 km/h 43.5 km/h 81% 0 mm
18:54 8.4 °C 5.1 °C 993.5 hPa SSW 20.9 km/h 49.9 km/h 80% 0 mm
18:59 8.1 °C 5.1 °C 993.5 hPa WSW 19.3 km/h 53.1 km/h 81% 0 mm
19:04 7.8 °C 4.7 °C 993.1 hPa WSW 25.7 km/h 54.7 km/h 81% 0 mm
19:09 7.5 °C 4.4 °C 993.5 hPa WSW 20.9 km/h 43.5 km/h 81% 0 mm
19:14 7.2 °C 4.2 °C 993.8 hPa SSW 25.7 km/h 49.9 km/h 81% 0 mm
19:19 7 °C 3.8 °C 993.8 hPa SW 14.5 km/h 59.5 km/h 80% 0 mm
19:24 6.8 °C 3.7 °C 993.8 hPa WSW 25.7 km/h 59.5 km/h 81% 0 mm
19:29 6.6 °C 3.5 °C 994.1 hPa WSW 24.1 km/h 48.3 km/h 81% 0 mm
19:34 6.4 °C 3.4 °C 994.5 hPa WSW 24.1 km/h 43.5 km/h 81% 0 mm
19:39 6.3 °C 3.3 °C 994.5 hPa WSW 25.7 km/h 41.8 km/h 81% 0 mm
19:44 6.2 °C 3.2 °C 994.8 hPa WSW 25.7 km/h 40.2 km/h 81% 0 mm
19:49 6 °C 3 °C 994.8 hPa SW 24.1 km/h 43.5 km/h 81% 0 mm
19:54 5.9 °C 2.9 °C 995.1 hPa SW 25.7 km/h 43.5 km/h 81% 0 mm
19:59 5.8 °C 2.8 °C 995.1 hPa SW 24.1 km/h 41.8 km/h 81% 0 mm
20:04 5.6 °C 2.6 °C 995.1 hPa SW 24.1 km/h 45.1 km/h 81% 0 mm
20:09 5.5 °C 2.5 °C 995.5 hPa SW 32.2 km/h 40.2 km/h 81% 0 mm
20:14 5.4 °C 2.6 °C 995.5 hPa SW 35.4 km/h 38.6 km/h 82% 0 mm
20:19 5.4 °C 2.6 °C 995.5 hPa SW 27.4 km/h 38.6 km/h 82% 0 mm
20:24 5.4 °C 2.4 °C 995.8 hPa WSW 22.5 km/h 45.1 km/h 81% 0 mm
20:29 5.3 °C 2.3 °C 995.8 hPa SW 22.5 km/h 45.1 km/h 81% 0 mm
20:34 5.2 °C 2.2 °C 995.8 hPa SW 20.9 km/h 41.8 km/h 81% 0 mm
20:39 5.2 °C 2.2 °C 995.8 hPa SW 35.4 km/h 46.7 km/h 81% 0 mm
20:44 5.2 °C 2 °C 995.8 hPa SSW 16.1 km/h 46.7 km/h 80% 0 mm
20:49 5.2 °C 1.9 °C 995.8 hPa SW 30.6 km/h 61.2 km/h 79% 0 mm
20:54 5.3 °C 1.9 °C 995.8 hPa SSE 16.1 km/h 45.1 km/h 79% 0 mm
20:59 5.3 °C 1.8 °C 996.2 hPa WSW 27.4 km/h 45.1 km/h 78% 0 mm
21:04 5.2 °C 1.7 °C 996.2 hPa WSW 25.7 km/h 53.1 km/h 78% 0 mm
21:09 5.1 °C 1.6 °C 996.5 hPa WSW 25.7 km/h 53.1 km/h 78% 0 mm
21:14 5 °C 1.7 °C 996.5 hPa WSW 24.1 km/h 45.1 km/h 79% 0 mm
21:19 4.8 °C 1.5 °C 996.5 hPa WSW 22.5 km/h 45.1 km/h 79% 0 mm
21:24 4.8 °C 1.6 °C 996.5 hPa SW 22.5 km/h 43.5 km/h 80% 0 mm
21:29 4.7 °C 1.5 °C 996.5 hPa WSW 24.1 km/h 45.1 km/h 80% 0 mm
21:34 4.5 °C 1.3 °C 996.8 hPa WNW 22.5 km/h 30.6 km/h 80% 0 mm
21:39 4.3 °C 1.2 °C 996.8 hPa SW 14.5 km/h 45.1 km/h 80% 0 mm
21:44 4.2 °C 1.1 °C 996.5 hPa SW 35.4 km/h 46.7 km/h 80% 0 mm
21:49 4.1 °C 0.9 °C 996.5 hPa WSW 24.1 km/h 46.7 km/h 80% 0 mm
21:54 4 °C 0.8 °C 996.8 hPa SW 22.5 km/h 37 km/h 80% 0 mm
21:59 3.9 °C 0.9 °C 996.8 hPa SW 19.3 km/h 37 km/h 81% 0 mm
22:04 3.8 °C 0.8 °C 996.8 hPa SW 19.3 km/h 41.8 km/h 81% 0 mm
22:09 3.8 °C 0.8 °C 996.8 hPa WSW 19.3 km/h 41.8 km/h 81% 0 mm
22:14 3.7 °C 0.7 °C 996.8 hPa WSW 20.9 km/h 38.6 km/h 81% 0 mm
22:19 3.7 °C 0.7 °C 996.8 hPa WSW 20.9 km/h 38.6 km/h 81% 0 mm
22:24 3.7 °C 0.7 °C 996.8 hPa WSW 19.3 km/h 37 km/h 81% 0 mm
22:29 3.7 °C 0.7 °C 996.8 hPa SW 35.4 km/h 41.8 km/h 81% 0 mm
22:34 3.6 °C 0.5 °C 997.2 hPa WSW 20.9 km/h 46.7 km/h 80% 0 mm
22:39 3.6 °C 0.5 °C 997.2 hPa SSW 14.5 km/h 37 km/h 80% 0 mm
22:44 3.6 °C 0.4 °C 997.2 hPa SW 17.7 km/h 38.6 km/h 80% 0 mm
22:49 3.5 °C 0.4 °C 997.2 hPa WSW 17.7 km/h 41.8 km/h 80% 0 mm
22:54 3.4 °C 0.3 °C 997.2 hPa WSW 24.1 km/h 43.5 km/h 80% 0 mm
22:59 3.4 °C 0.1 °C 997.2 hPa SSW 24.1 km/h 46.7 km/h 79% 0 mm
23:04 3.4 °C 0.1 °C 997.5 hPa SW 22.5 km/h 46.7 km/h 79% 0 mm
23:09 3.3 °C 0.1 °C 997.5 hPa WSW 24.1 km/h 45.1 km/h 79% 0 mm
23:14 3.3 °C 0.1 °C 997.9 hPa West 12.9 km/h 35.4 km/h 79% 0 mm
23:19 3.3 °C 0 °C 997.5 hPa WSW 22.5 km/h 38.6 km/h 79% 0 mm
23:24 3.2 °C -0.1 °C 997.9 hPa WSW 12.9 km/h 35.4 km/h 79% 0 mm
23:29 3.2 °C -0.1 °C 997.9 hPa SW 12.9 km/h 38.6 km/h 79% 0 mm
23:34 3.1 °C -0.2 °C 997.9 hPa West 19.3 km/h 43.5 km/h 79% 0 mm
23:39 3 °C -0.4 °C 998.2 hPa WSW 20.9 km/h 43.5 km/h 78% 0 mm
23:44 2.9 °C -0.9 °C 998.5 hPa WSW 19.3 km/h 40.2 km/h 76% 0 mm
23:49 2.7 °C -1.3 °C 998.5 hPa WSW 19.3 km/h 41.8 km/h 75% 0 mm
23:54 2.5 °C -1.7 °C 998.5 hPa West 14.5 km/h 48.3 km/h 74% 0 mm
23:59 2.3 °C -1.8 °C 998.9 hPa WSW 19.3 km/h 40.2 km/h 74% 0 mm
Buffalo, New York, USA
Compliments of Weather Underground - 2.5 mb